Nearby METAR Reports

 

KTEB - Teterboro, New Jersey, USA
Distance from station: ENE 2mi, 4km
Updated: 01/21/2019 11:51pm
Clear
Clear
 Wind from NNW
Wind: NNW 10 mph , 17 km/h, Gust: 23 mph , 37 km/h
Temperature: 12°F , -11°C
Wind Chill: -1°F , -18°C
Dew Point: -0°F , -18°C
Humidity: 57%
Barometer: 30.41 inHg , 1029.8 hPa
Clouds: Clear
Visibility: 10 miles , 16 km
2019/01/22 04:51 KTEB 220451Z 34009G20KT 300V360 10SM CLR M11/M18 A3041 RMK AO2 SLP298 T11061178 410941156 $
KNYC - Nyc/Central Park, New York, USA
Distance from station: SE 8mi, 13km
Updated: 01/21/2019 11:51pm
Clear
Clear
 
Temperature: 14°F , -10°C
Dew Point: -0°F , -18°C
Humidity: 52%
Barometer: 30.40 inHg , 1029.5 hPa
Clouds: Clear
Visibility: 10 miles , 16 km
2019/01/22 04:51 KNYC 220451Z AUTO 10SM CLR M10/M18 A3040 RMK AO2 SLP289 T11001183 411001156 $
 
KCDW - Caldwell, New Jersey, USA
Distance from station: WNW 10mi, 17km
Updated: 01/21/2019 11:53pm
Clear
Clear
 Wind from NW
Wind: NW 8 mph , 13 km/h
Temperature: 10°F , -12°C
Wind Chill: -2°F , -19°C
Dew Point: -2°F , -19°C
Humidity: 56%
Barometer: 30.43 inHg , 1030.5 hPa
Clouds: Clear
Visibility: 10 miles , 16 km
2019/01/22 04:53 KCDW 220453Z AUTO 32007KT 10SM CLR M12/M19 A3043 RMK AO2 SLP315 T11171189 411111167
KLGA - Nyc/La Guardia, New York, USA
Distance from station: ESE 12mi, 19km
Updated: 01/21/2019 11:51pm
Clear
Clear
 Wind from WNW
Wind: WNW 21 mph , 33 km/h, Gust: 31 mph , 50 km/h
Temperature: 16°F , -9°C
Wind Chill: -1°F , -18°C
Dew Point: 1°F , -17°C
Humidity: 53%
Barometer: 30.40 inHg , 1029.5 hPa
Clouds: Clear
Visibility: 10 miles , 16 km
2019/01/22 04:51 KLGA 220451Z 30018G27KT 10SM CLR M09/M17 A3040 RMK AO2 PK WND 32036/0430 SLP294 T10941167 410891150 $
 
KEWR - Newark, New Jersey, USA
Distance from station: SSW 12mi, 20km
Updated: 01/21/2019 11:51pm
Few Clouds
Few Clouds
 Wind from WNW
Wind: WNW 12 mph , 19 km/h, Gust: 21 mph , 33 km/h
Temperature: 12°F , -11°C
Wind Chill: -2°F , -19°C
Dew Point: -2°F , -19°C
Humidity: 52%
Barometer: 30.44 inHg , 1030.8 hPa
Clouds: Few Clouds
Visibility: 10 miles , 16 km
Cloud details: Few Clouds 5000 ft
2019/01/22 04:51 KEWR 220451Z 30010G18KT 10SM FEW050 M11/M19 A3044 RMK AO2 PK WND 30026/0407 SLP305 T11061189 410941156 $
KMMU - Morristown Muni, New Jersey, USA
Distance from station: WSW 18mi, 29km
Updated: 01/22/2019 12:15am
Clear
Clear
 Wind from NW
Wind: NW 10 mph , 17 km/h, Gust: 21 mph , 33 km/h
Temperature: 12°F , -11°C
Wind Chill: -1°F , -18°C
Dew Point: 1°F , -17°C
Humidity: 62%
Barometer: 30.43 inHg , 1030.5 hPa
Clouds: Clear
Visibility: 10 miles , 16 km
2019/01/22 05:15 KMMU 220515Z AUTO 31009G18KT 10SM CLR M11/M17 A3043 RMK AO2
 
KJFK - Nyc/Jfk Arpt, New York, USA
Distance from station: SE 23mi, 36km
Updated: 01/21/2019 11:51pm
Few Clouds
Few Clouds
 Wind from WNW
Wind: WNW 26 mph , 43 km/h, Gust: 33 mph , 54 km/h
Temperature: 14°F , -10°C
Wind Chill: -6°F , -21°C
Dew Point: -0°F , -18°C
Humidity: 52%
Barometer: 30.41 inHg , 1029.8 hPa
Clouds: Few Clouds
Visibility: 10 miles , 16 km
Cloud details: Few Clouds 4500 ft
2019/01/22 04:51 KJFK 220451Z 30023G29KT 10SM FEW045 M10/M18 A3041 RMK AO2 PK WND 29029/0446 SLP296 T11001178 410941150
KHPN - White Plains, New York, USA
Distance from station: NE 25mi, 40km
Updated: 01/21/2019 11:56pm
Clear
Clear
 Wind from WNW
Wind: WNW 16 mph , 26 km/h, Gust: 31 mph , 50 km/h
Temperature: 10°F , -12°C
Wind Chill: -7°F , -22°C
Dew Point: -0°F , -18°C
Humidity: 61%
Barometer: 30.31 inHg , 1026.4 hPa
Clouds: Clear
Visibility: 10 miles , 16 km
2019/01/22 04:56 KHPN 220456Z 29014G27KT 10SM CLR M12/M18 A3031 RMK AO2 PK WND 31036/0402 SLP280 T11171183 411111167 $
 
KSMQ - Somerville, New Jersey, USA
Distance from station: WSW 34mi, 55km
Updated: 01/21/2019 11:53pm
Clear
Clear
 Wind from NW
Wind: NW 14 mph , 22 km/h
Temperature: 12°F , -11°C
Wind Chill: -4°F , -20°C
Dew Point: -2°F , -19°C
Humidity: 52%
Barometer: 30.44 inHg , 1030.8 hPa
Clouds: Clear
Visibility: 10 miles , 16 km
2019/01/22 04:53 KSMQ 220453Z AUTO 32012KT 10SM CLR M11/M19 A3044 RMK AO2 SLP313 T11061189 410941156
K12N - Andover, New Jersey, USA
Distance from station: WNW 36mi, 57km
Updated: 01/21/2019 11:54pm

 Wind from varies
Wind: varies 6 mph , 9 km/h
Temperature: 9°F , -13°C
Wind Chill: -1°F , -18°C
Dew Point: -0°F , -18°C
Humidity: 66%
Barometer: 30.41 inHg , 1029.8 hPa
2019/01/22 04:54 K12N 220454Z AUTO VRB05KT M13/M18 A3041 RMK AO1 SLP320 T11281183 411221183
 
KFRG - Farmingdale, New York, USA
Distance from station: ESE 36mi, 58km
Updated: 01/21/2019 11:53pm
Clear
Clear
 Wind from NW
Wind: NW 13 mph , 20 km/h, Gust: 22 mph , 35 km/h
Temperature: 12°F , -11°C
Wind Chill: -3°F , -19°C
Dew Point: -0°F , -18°C
Humidity: 57%
Barometer: 30.37 inHg , 1028.4 hPa
Clouds: Clear
Visibility: 10 miles , 16 km
2019/01/22 04:53 KFRG 220453Z 31011G19KT 10SM CLR M11/M18 A3037 RMK AO2 PK WND 30026/0416 SLP284 T11111183 410941150 $
KFWN - Sussex, New Jersey, USA
Distance from station: NW 37mi, 60km
Updated: 01/21/2019 11:53pm
Few Clouds
Few Clouds
 Wind from WNW
Wind: WNW 8 mph , 13 km/h
Temperature: 9°F , -13°C
Wind Chill: -3°F , -19°C
Dew Point: -0°F , -18°C
Humidity: 66%
Barometer: 30.40 inHg , 1029.5 hPa
Clouds: Few Clouds
Visibility: 10 miles , 16 km
Cloud details: Few Clouds 3200 ft
2019/01/22 04:53 KFWN 220453Z AUTO 30007KT 260V330 10SM FEW032 M13/M18 A3040 RMK AO2 SLP303 T11281183 411171178 $
 
KSWF - Newburgh/Stewart, New York, USA
Distance from station: 0 45mi, 72km
Updated: 01/21/2019 11:45pm
Clear
Clear
 Wind from W
Wind: W 23 mph , 37 km/h
Temperature: 9°F , -13°C
Wind Chill: -11°F , -24°C
Dew Point: 1°F , -17°C
Humidity: 72%
Barometer: 30.33 inHg , 1027.1 hPa
Clouds: Clear
Visibility: 10 miles , 16 km
2019/01/22 04:45 KSWF 220445Z 28020KT 10SM SKC M13/M17 A3033
KMGJ - Montgomery, New York, USA
Distance from station: NNW 47mi, 75km
Updated: 01/21/2019 11:54pm
Clear
Clear
 Wind from WNW
Wind: WNW 8 mph , 13 km/h
Temperature: 10°F , -12°C
Wind Chill: -2°F , -19°C
Dew Point: -0°F , -18°C
Humidity: 61%
Barometer: 30.34 inHg , 1027.4 hPa
Clouds: Clear
Visibility: 10 miles , 16 km
2019/01/22 04:54 KMGJ 220454Z AUTO 30007KT 230V320 10SM CLR M12/M18 A3034 RMK AO2 SLP282 T11171183 411171178
 
KBLM - Belmar/Farmdale, New Jersey, USA
Distance from station: S 47mi, 76km
Updated: 01/21/2019 11:56pm
Clear
Clear
 Wind from W
Wind: W 15 mph , 24 km/h, Gust: 21 mph , 33 km/h
Temperature: 12°F , -11°C
Wind Chill: -4°F , -20°C
Dew Point: -0°F , -18°C
Humidity: 57%
Barometer: 30.45 inHg , 1031.2 hPa
Clouds: Clear
Visibility: 10 miles , 16 km
2019/01/22 04:56 KBLM 220456Z AUTO 28013G18KT 10SM CLR M11/M18 A3045 RMK AO2 SLP316 T11111183 410941139 FZRANO
KDXR - Danbury, Connecticut, USA
Distance from station: NE 47mi, 76km
Updated: 01/21/2019 11:53pm
Clear
Clear
 Wind from WNW
Wind: WNW 12 mph , 19 km/h, Gust: 18 mph , 30 km/h
Temperature: 9°F , -13°C
Wind Chill: -6°F , -21°C
Dew Point: -2°F , -19°C
Humidity: 61%
Barometer: 30.30 inHg , 1026.1 hPa
Clouds: Clear
Visibility: 10 miles , 16 km
2019/01/22 04:53 KDXR 220453Z AUTO 29010G16KT 10SM CLR M13/M19 A3030 RMK AO2 SLP271 T11281194 411111172
 
KISP - Islip, New York, USA
Distance from station: E 52mi, 83km
Updated: 01/21/2019 11:56pm
Few Clouds
Few Clouds
 Wind from NW
Wind: NW 17 mph , 28 km/h, Gust: 26 mph , 43 km/h
Temperature: 12°F , -11°C
Wind Chill: -5°F , -21°C
Dew Point: -0°F , -18°C
Humidity: 57%
Barometer: 30.34 inHg , 1027.4 hPa
Clouds: Few Clouds
Visibility: 10 miles , 16 km
Cloud details: Few Clouds 5000 ft
2019/01/22 04:56 KISP 220456Z 31015G23KT 10SM FEW050 M11/M18 A3034 RMK AO2 SLP277 LAST T11061183 411001144 $
KBDR - Bridgeport, Connecticut, USA
Distance from station: ENE 54mi, 87km
Updated: 01/21/2019 11:52pm
Clear
Clear
 Wind from WNW
Wind: WNW 13 mph , 20 km/h
Temperature: 12°F , -11°C
Wind Chill: -3°F , -19°C
Dew Point: -2°F , -19°C
Humidity: 52%
Barometer: 30.33 inHg , 1027.1 hPa
Clouds: Clear
Visibility: 10 miles , 16 km
2019/01/22 04:52 KBDR 220452Z AUTO 30011KT 10SM CLR M11/M19 A3033 RMK AO2 SLP271 T11111194 410891150
 
KTTN - Trenton, New Jersey, USA
Distance from station: SW 55mi, 88km
Updated: 01/21/2019 11:53pm
Clear
Clear
 Wind from NW
Wind: NW 14 mph , 22 km/h, Gust: 20 mph , 31 km/h
Temperature: 14°F , -10°C
Wind Chill: -1°F , -18°C
Dew Point: -2°F , -19°C
Humidity: 48%
Barometer: 30.46 inHg , 1031.5 hPa
Clouds: Clear
Visibility: 10 miles , 16 km
2019/01/22 04:53 KTTN 220453Z AUTO 31012G17KT 10SM CLR M10/M19 A3046 RMK AO2 SLP315 T11001189 410781139
KPOU - Poughkeepsie, New York, USA
Distance from station: N 55mi, 89km
Updated: 01/21/2019 11:53pm
Clear
Clear
 Wind from WNW
Wind: WNW 10 mph , 17 km/h
Temperature: 12°F , -11°C
Wind Chill: -1°F , -18°C
Dew Point: -4°F , -20°C
Humidity: 48%
Barometer: 30.36 inHg , 1028.1 hPa
Clouds: Clear
Visibility: 10 miles , 16 km
2019/01/22 04:53 KPOU 220453Z AUTO 29009KT 10SM CLR M11/M20 A3036 RMK AO2 SLP280 T11111200 410941161 $
 
KNEL - Lakehurst Nas, New Jersey, USA
Distance from station: SSW 59mi, 95km
Updated: 01/22/2019 12:00am
Light rain, Clear
Light rain, Clear
 Wind from WNW
Wind: WNW 18 mph , 30 km/h, Gust: 28 mph , 44 km/h
Barometer: 30.44 inHg , 1030.8 hPa
Summary: Light rain
Clouds: Clear
2019/01/22 05:00 KNEL 220500Z AUTO 30016G24KT -RA CLR A3044 RMK AO2 RAB0459 SLPNO PNO $
KWRI - Wrightst/Mcguire, New Jersey, USA
Distance from station: SSW 63mi, 102km
Updated: 01/21/2019 11:56pm
Clear
Clear
 Wind from NW
Wind: NW 14 mph , 22 km/h, Gust: 23 mph , 37 km/h
Temperature: 14°F , -10°C
Wind Chill: -1°F , -18°C
Dew Point: -4°F , -20°C
Humidity: 44%
Barometer: 30.45 inHg , 1031.2 hPa
Clouds: Clear
Visibility: 10 miles , 16 km
2019/01/22 04:56 KWRI 220456Z AUTO 31012G20KT 10SM CLR M10/M20 A3045 RMK AO2 SLP314 T11051197 410811132 $
 
KHWV - Shirley, New York, USA
Distance from station: E 64mi, 103km
Updated: 01/21/2019 11:56pm
Clear
Clear
 Wind from WNW
Wind: WNW 15 mph , 24 km/h, Gust: 23 mph , 37 km/h
Temperature: 12°F , -11°C
Wind Chill: -4°F , -20°C
Dew Point: -2°F , -19°C
Humidity: 52%
Barometer: 30.34 inHg , 1027.4 hPa
Clouds: Clear
Visibility: 10 miles , 16 km
2019/01/22 04:56 KHWV 220456Z AUTO 30013G20KT 10SM CLR M11/M19 A3034 RMK AO2 SLP274 T11061194 410941139
KMJX - Toms River, New Jersey, USA
Distance from station: S 64mi, 104km
Updated: 01/21/2019 11:56pm
Clear
Clear
 Wind from WNW
Wind: WNW 14 mph , 22 km/h
Temperature: 12°F , -11°C
Wind Chill: -4°F , -20°C
Dew Point: -2°F , -19°C
Humidity: 52%
Barometer: 30.47 inHg , 1031.8 hPa
Clouds: Clear
Visibility: 10 miles , 16 km
2019/01/22 04:56 KMJX 220456Z AUTO 30012KT 10SM CLR M11/M19 A3047 RMK AO2 PK WND 32026/0407 SLP326 T11061189 410831133 FZRANO
 
KDYL - Doylestown, Pennsylvania, USA
Distance from station: SW 65mi, 104km
Updated: 01/21/2019 11:54pm
Clear
Clear
 Wind from NW
Wind: NW 16 mph , 26 km/h, Gust: 23 mph , 37 km/h
Temperature: 10°F , -12°C
Wind Chill: -7°F , -22°C
Dew Point: -4°F , -20°C
Humidity: 52%
Barometer: 30.46 inHg , 1031.5 hPa
Clouds: Clear
Visibility: 10 miles , 16 km
2019/01/22 04:54 KDYL 220454Z AUTO 31014G20KT 10SM CLR M12/M20 A3046 RMK AO2 SLP328 T11171200 410831150
KOXC - Oxford/Waterbury, Connecticut, USA
Distance from station: NE 65mi, 105km
Updated: 01/21/2019 11:51pm
Clear
Clear
 Wind from varies
Wind: varies 6 mph , 9 km/h, Gust: 17 mph , 28 km/h
Temperature: 3°F , -16°C
Wind Chill: -8°F , -22°C
Dew Point: -2°F , -19°C
Humidity: 78%
Barometer: 30.24 inHg , 1024 hPa
Clouds: Clear
Visibility: 10 miles , 16 km
2019/01/22 04:51 KOXC 220451Z AUTO VRB05G15KT 10SM CLR M16/M19 A3024 RMK AO2 SLP273 T11561194 411221200 FZRANO
 
KMSV - Monticello, New York, USA
Distance from station: NNW 69mi, 111km
Updated: 01/21/2019 11:56pm
Clear
Clear
 Wind from WNW
Wind: WNW 15 mph , 24 km/h, Gust: 23 mph , 37 km/h
Temperature: 5°F , -15°C
Wind Chill: -13°F , -25°C
Dew Point: -0°F , -18°C
Humidity: 78%
Barometer: 30.29 inHg , 1025.7 hPa
Clouds: Clear
Visibility: 10 miles , 16 km
2019/01/22 04:56 KMSV 220456Z AUTO 29013G20KT 10SM CLR M15/M18 A3029 RMK AO2 SNE08 SLP294 P0000 T11501183 411501217 FZRANO
KHVN - New Haven/Tweed, Connecticut, USA
Distance from station: ENE 70mi, 112km
Updated: 01/21/2019 11:53pm
Clear
Clear
 Wind from WNW
Wind: WNW 10 mph , 17 km/h, Gust: 18 mph , 30 km/h
Temperature: 10°F , -12°C
Wind Chill: -4°F , -20°C
Dew Point: -0°F , -18°C
Humidity: 61%
Barometer: 30.31 inHg , 1026.4 hPa
Clouds: Clear
Visibility: 10 miles , 16 km
2019/01/22 04:53 KHVN 220453Z AUTO 30009G16KT 10SM CLR M12/M18 A3031 RMK AO2 SLP264 T11171183 410941167
 
KMPO - Mt. Pocono, Pennsylvania, USA
Distance from station: WNW 70mi, 113km
Updated: 01/21/2019 11:53pm
Overcast
Overcast
 Wind from WNW
Wind: WNW 28 mph , 44 km/h, Gust: 43 mph , 69 km/h
Temperature: 1°F , -17°C
Wind Chill: -24°F , -31°C
Dew Point: -2°F , -19°C
Humidity: 85%
Barometer: 30.26 inHg , 1024.7 hPa
Clouds: Overcast
Visibility: 8 miles , 13 km
Cloud details: Overcast 1200 ft
2019/01/22 04:53 KMPO 220453Z AUTO 30024G37KT 8SM OVC012 M17/M19 A3026 RMK AO2 PK WND 30037/0445 UPB06E39 SLP299 P0000 T11671189 411671228 $
KPNE - Philadelphia/Ne, Pennsylvania, USA
Distance from station: SW 72mi, 116km
Updated: 01/21/2019 11:54pm
Clear
Clear
 Wind from WNW
Wind: WNW 17 mph , 28 km/h, Gust: 24 mph , 39 km/h
Temperature: 16°F , -9°C
Wind Chill: 0°F , -18°C
Dew Point: -4°F , -20°C
Humidity: 41%
Barometer: 30.50 inHg , 1032.8 hPa
Clouds: Clear
Visibility: 10 miles , 16 km
2019/01/22 04:54 KPNE 220454Z AUTO 30015G21KT 10SM CLR M09/M20 A3050 RMK AO2 SLP331 T10941200 410671122
 
KABE - Allentown, Pennsylvania, USA
Distance from station: W 73mi, 117km
Updated: 01/21/2019 11:51pm
Clear
Clear
 Wind from NW
Wind: NW 12 mph , 19 km/h, Gust: 17 mph , 28 km/h
Temperature: 12°F , -11°C
Wind Chill: -2°F , -19°C
Dew Point: -2°F , -19°C
Humidity: 52%
Barometer: 30.47 inHg , 1031.8 hPa
Clouds: Clear
Visibility: 10 miles , 16 km
2019/01/22 04:51 KABE 220451Z 31010G15KT 10SM CLR M11/M19 A3047 RMK AO2 SLP327 T11061189 410831150
KUKT - Quakertown Arp, Pennsylvania, USA
Distance from station: WSW 74mi, 119km
Updated: 01/22/2019 12:15am
Clear
Clear
 Wind from W
Wind: W 8 mph , 13 km/h, Gust: 17 mph , 28 km/h
Temperature: 10°F , -12°C
Wind Chill: -2°F , -19°C
Dew Point: -2°F , -19°C
Humidity: 56%
Barometer: 30.46 inHg , 1031.5 hPa
Clouds: Clear
Visibility: 10 miles , 16 km
2019/01/22 05:15 KUKT 220515Z AUTO 27007G15KT 210V330 10SM CLR M12/M19 A3046 RMK A01
 
KVAY - Mount Holly, New Jersey, USA
Distance from station: SSW 75mi, 120km
Updated: 01/21/2019 11:54pm
Clear
Clear
 Wind from WNW
Wind: WNW 12 mph , 19 km/h, Gust: 21 mph , 33 km/h
Temperature: 14°F , -10°C
Wind Chill: 0°F , -18°C
Dew Point: -4°F , -20°C
Humidity: 44%
Barometer: 30.50 inHg , 1032.8 hPa
Clouds: Clear
Visibility: 10 miles , 16 km
2019/01/22 04:54 KVAY 220454Z AUTO 29010G18KT 10SM CLR M10/M20 A3050 RMK AO2 SLP330 T11001200 410781128
KXLL - Allentown Queen, Pennsylvania, USA
Distance from station: WSW 76mi, 122km
Updated: 01/22/2019 12:15am
Clear
Clear
 Wind from WNW
Wind: WNW 8 mph , 13 km/h, Gust: 17 mph , 28 km/h
Temperature: 12°F , -11°C
Wind Chill: 0°F , -18°C
Dew Point: -0°F , -18°C
Humidity: 57%
Barometer: 30.50 inHg , 1032.8 hPa
Clouds: Clear
Visibility: 10 miles , 16 km
2019/01/22 05:15 KXLL 220515Z AUTO 29007G15KT 260V320 10SM CLR M11/M18 A3050 RMK AO2
 
KFOK - Westhampton Beac, New York, USA
Distance from station: E 77mi, 124km
Updated: 01/21/2019 11:53pm
Clear
Clear
 Wind from WNW
Wind: WNW 22 mph , 35 km/h, Gust: 32 mph , 52 km/h
Temperature: 12°F , -11°C
Wind Chill: -7°F , -22°C
Dew Point: -2°F , -19°C
Humidity: 52%
Barometer: 30.32 inHg , 1026.8 hPa
Clouds: Clear
Visibility: 10 miles , 16 km
2019/01/22 04:53 KFOK 220453Z AUTO 30019G28KT 10SM CLR M11/M19 A3032 RMK AO2 PK WND 30028/0431 SLP267 T11061194 410941139 $
KLOM - Philly Wings F, Pennsylvania, USA
Distance from station: SW 79mi, 128km
Updated: 01/22/2019 12:15am
Clear
Clear
 Wind from NW
Wind: NW 12 mph , 19 km/h, Gust: 21 mph , 33 km/h
Temperature: 12°F , -11°C
Wind Chill: -2°F , -19°C
Dew Point: -2°F , -19°C
Humidity: 52%
Barometer: 30.50 inHg , 1032.8 hPa
Clouds: Clear
Visibility: 10 miles , 16 km
2019/01/22 05:15 KLOM 220515Z AUTO 31010G18KT 280V340 10SM CLR M11/M19 A3050 RMK AO1
 
KMMK - Meriden, Connecticut, USA
Distance from station: NE 80mi, 128km
Updated: 01/21/2019 11:53pm
Clear
Clear
 Wind from NW
Wind: NW 15 mph , 24 km/h, Gust: 22 mph , 35 km/h
Temperature: 9°F , -13°C
Wind Chill: -8°F , -22°C
Dew Point: -6°F , -21°C
Humidity: 51%
Barometer: 30.28 inHg , 1025.4 hPa
Clouds: Clear
Visibility: 10 miles , 16 km
2019/01/22 04:53 KMMK 220453Z AUTO 32013G19KT 10SM CLR M13/M21 A3028 RMK AO2 SLP258 T11331206 411111183
KPTW - Pottstown, Pennsylvania, USA
Distance from station: WSW 88mi, 141km
Updated: 01/21/2019 11:54pm
Clear
Clear
 Wind from WNW
Wind: WNW 9 mph , 15 km/h
Temperature: 10°F , -12°C
Wind Chill: -3°F , -19°C
Dew Point: -4°F , -20°C
Humidity: 52%
Barometer: 30.51 inHg , 1033.2 hPa
Clouds: Clear
Visibility: 10 miles , 16 km
2019/01/22 04:54 KPTW 220454Z AUTO 29008KT 10SM CLR M12/M20 A3051 RMK AO2 SLP334 T11171200 410891144 TSNO
 
KSNC - Chester, Connecticut, USA
Distance from station: ENE 90mi, 146km
Updated: 01/22/2019 12:15am
Clear
Clear
 Wind from NW
Wind: NW 17 mph , 28 km/h, Gust: 25 mph , 41 km/h
Temperature: 7°F , -14°C
Wind Chill: -11°F , -24°C
Dew Point: -9°F , -23°C
Humidity: 47%
Barometer: 30.23 inHg , 1023.7 hPa
Clouds: Clear
Visibility: 10 miles , 16 km
2019/01/22 05:15 KSNC 220515Z AUTO 31015G22KT 280V340 10SM CLR M14/M23 A3023 RMK AO2
KPHL - Philadelphia, Pennsylvania, USA
Distance from station: SW 91mi, 146km
Updated: 01/21/2019 11:54pm
Clear
Clear
 Wind from WNW
Wind: WNW 15 mph , 24 km/h
Temperature: 16°F , -9°C
Wind Chill: 1°F , -17°C
Dew Point: -6°F , -21°C
Humidity: 37%
Barometer: 30.53 inHg , 1033.9 hPa
Clouds: Clear
Visibility: 10 miles , 16 km
2019/01/22 04:54 KPHL 220454Z 30013KT 10SM CLR M09/M21 A3053 RMK AO2 SLP337 T10941211 410721122 $
 
KAVP - Avoca/Wilkes B., Pennsylvania, USA
Distance from station: WNW 91mi, 147km
Updated: 01/21/2019 11:54pm
Mostly cloudy
Mostly cloudy
 Wind from W
Wind: W 9 mph , 15 km/h
Temperature: 9°F , -13°C
Wind Chill: -4°F , -20°C
Dew Point: -2°F , -19°C
Humidity: 61%
Barometer: 30.46 inHg , 1031.5 hPa
Clouds: Mostly cloudy
Visibility: 10 miles , 16 km
Cloud details: Mostly cloudy 3100 ft
2019/01/22 04:54 KAVP 220454Z 28008KT 10SM BKN031 M13/M19 A3046 RMK AO2 SLP334 T11331189 411281194
KHFD - Hartford/Brainar, Connecticut, USA
Distance from station: NE 96mi, 155km
Updated: 01/21/2019 11:53pm
Clear
Clear
 Wind from NW
Wind: NW 14 mph , 22 km/h, Gust: 24 mph , 39 km/h
Temperature: 9°F , -13°C
Wind Chill: -7°F , -22°C
Dew Point: -11°F , -24°C
Humidity: 39%
Barometer: 30.29 inHg , 1025.7 hPa
Clouds: Clear
Visibility: 10 miles , 16 km
2019/01/22 04:53 KHFD 220453Z 32012G21KT 10SM CLR M13/M24 A3029 RMK AO2 PK WND 34028/0439 SLP258 T11331244 411331183
 
KHTO - East Hampton, New York, USA
Distance from station: E 96mi, 155km
Updated: 01/22/2019 12:15am
Clear
Clear
 Wind from NW
Wind: NW 20 mph , 31 km/h, Gust: 30 mph , 48 km/h
Temperature: 12°F , -11°C
Wind Chill: -6°F , -21°C
Dew Point: -4°F , -20°C
Humidity: 48%
Barometer: 30.28 inHg , 1025.4 hPa
Clouds: Clear
Visibility: 10 miles , 16 km
2019/01/22 05:15 KHTO 220515Z AUTO 31017G26KT 10SM CLR M11/M20 A3028 RMK AO2 T11151197
KACY - Atlantic City, New Jersey, USA
Distance from station: SSW 99mi, 160km
Updated: 01/21/2019 11:54pm
Clear
Clear
 Wind from NW
Wind: NW 16 mph , 26 km/h
Temperature: 16°F , -9°C
Wind Chill: 1°F , -17°C
Dew Point: -2°F , -19°C
Humidity: 45%
Barometer: 30.49 inHg , 1032.5 hPa
Clouds: Clear
Visibility: 10 miles , 16 km
2019/01/22 04:54 KACY 220454Z 31014KT 10SM CLR M09/M19 A3049 RMK AO2 SLP327 T10941194 410721122 $